(°C)
10°
10°
10°
10°
(°C)
NO
NO
NNO
NNO
NNO
NNO
NNO
(km/h)
22-41
22-41
21-40
20-38
18-37
18-35
17-32
(mm)
0
0
0
0
0
0
0
(%)
0
0
0
1
1
1
2

Élévation du soleil

/ 53.7°
sun-icon
UV 2
04:03
20:51
Dernier croissant (291°)
02:43
13:27

METAR pour 55.6°N 37.27°E (UUWW)

Heure Conditions Température/
Point de rosée
Vent Visibilité Météo Nuages Pression Changement Brut
VFR 10°C / -6°C 330º 16kt >10km - Clouds and Visibility OK 1005 No Significant change UUWW 240800Z 33008MPS CAVOK 10/M06 Q1005 R24/000070 NOSIG
VFR 10°C / -8°C 330º 17kt >10km - Clouds and Visibility OK 1005 No Significant change UUWW 240730Z 33009MPS CAVOK 10/M08 Q1005 R24/000070 NOSIG
VFR 10°C / -5°C 320º 14kt >10km - Clouds and Visibility OK 1005 No Significant change UUWW 240700Z 32007MPS CAVOK 10/M05 Q1005 R24/000070 NOSIG
VFR 10°C / -6°C 310º 16kt >10km - Clouds and Visibility OK 1004 No Significant change UUWW 240630Z 31008MPS CAVOK 10/M06 Q1004 R24/000070 NOSIG
VFR 10°C / -5°C 320º 16kt >10km - Clouds and Visibility OK 1004 No Significant change UUWW 240600Z 32008MPS CAVOK 10/M05 Q1004 R24/000070 NOSIG
VFR 9°C / -6°C 290º 10kt Gust 19kt >10km - Clouds and Visibility OK 1005 No Significant change UUWW 240530Z 29005G10MPS CAVOK 09/M06 Q1005 R24/000070 NOSIG
VFR 8°C / -6°C 290º 10kt >10km - Clouds and Visibility OK 1005 No Significant change UUWW 240500Z 29005MPS CAVOK 08/M06 Q1005 R24/000070 NOSIG
VFR 8°C / -6°C 300º 10kt >10km - Clouds and Visibility OK 1005 No Significant change UUWW 240430Z 30005MPS CAVOK 08/M06 Q1005 R24/000070 NOSIG
VFR 7°C / -5°C 280º 10kt >10km - Clouds and Visibility OK 1005 No Significant change UUWW 240400Z 28005MPS CAVOK 07/M05 Q1005 R24/000070 NOSIG
VFR 7°C / -4°C 280º 6kt >10km - Clouds and Visibility OK 1005 No Significant change UUWW 240330Z 28003MPS CAVOK 07/M04 Q1005 R24/000070 NOSIG
VFR 7°C / -5°C 280º 6kt >10km - Clouds and Visibility OK 1005 No Significant change UUWW 240300Z 28003MPS CAVOK 07/M05 Q1005 R24/000070 NOSIG
VFR 6°C / -5°C 270º 4kt >10km - Clouds and Visibility OK 1005 No Significant change UUWW 240230Z 27002MPS CAVOK 06/M05 Q1005 R24/000070 NOSIG
VFR 6°C / -5°C 250º 4kt >10km - Clouds and Visibility OK 1005 No Significant change UUWW 240200Z 25002MPS CAVOK 06/M05 Q1005 R24/000070 NOSIG
VFR 7°C / -6°C 310º 6kt >10km - Clouds and Visibility OK 1005 No Significant change UUWW 240130Z 31003MPS CAVOK 07/M06 Q1005 R24/000070 NOSIG
VFR 7°C / -6°C 320º 8kt >10km - Clouds and Visibility OK 1005 No Significant change UUWW 240100Z 32004MPS CAVOK 07/M06 Q1005 R24/000070 NOSIG
VFR 7°C / -6°C 300º 4kt >10km - Clouds and Visibility OK 1005 No Significant change UUWW 240030Z 30002MPS CAVOK 07/M06 Q1005 R24/000070 NOSIG
VFR 7°C / -6°C 270º 4kt >10km - Clouds and Visibility OK 1005 No Significant change UUWW 240000Z 27002MPS CAVOK 07/M06 Q1005 R24/000070 NOSIG
VFR 7°C / -6°C 290º 4kt >10km - Clouds and Visibility OK 1004 No Significant change UUWW 232330Z 29002MPS CAVOK 07/M06 Q1004 R24/000070 NOSIG
VFR 8°C / -6°C 290º 4kt >10km - Clouds and Visibility OK 1004 No Significant change UUWW 232300Z 29002MPS CAVOK 08/M06 Q1004 R24/000070 NOSIG
VFR 8°C / -6°C 290º 6kt >10km - Clouds and Visibility OK 1005 No Significant change UUWW 232230Z 29003MPS CAVOK 08/M06 Q1005 R24/000070 NOSIG
VFR 8°C / -7°C 330º 8kt >10km - Clouds and Visibility OK 1004 No Significant change UUWW 232200Z 33004MPS CAVOK 08/M07 Q1004 R24/000070 NOSIG
VFR 9°C / -7°C 330º 6kt >10km - Clouds and Visibility OK 1004 No Significant change UUWW 232130Z 33003MPS CAVOK 09/M07 Q1004 R24/000070 NOSIG
VFR 9°C / -7°C 290º 6kt >10km - Clouds and Visibility OK 1004 No Significant change UUWW 232100Z 29003MPS CAVOK 09/M07 Q1004 R24/000070 NOSIG
VFR 9°C / -7°C 290º 4kt >10km - Clouds and Visibility OK 1004 No Significant change UUWW 232030Z 29002MPS CAVOK 09/M07 Q1004 R24/000070 NOSIG

VFR

10°C / -6°C

[Plus]
Vent 330º 16kt
Visibilité >10km
Météo -
Nuages Clouds and Visibility OK
Pression 1005
Changement No Significant change
Brut UUWW 240800Z 33008MPS CAVOK 10/M06 Q1005 R24/000070 NOSIG

VFR

10°C / -8°C

[Plus]
Vent 330º 17kt
Visibilité >10km
Météo -
Nuages Clouds and Visibility OK
Pression 1005
Changement No Significant change
Brut UUWW 240730Z 33009MPS CAVOK 10/M08 Q1005 R24/000070 NOSIG

VFR

10°C / -5°C

[Plus]
Vent 320º 14kt
Visibilité >10km
Météo -
Nuages Clouds and Visibility OK
Pression 1005
Changement No Significant change
Brut UUWW 240700Z 32007MPS CAVOK 10/M05 Q1005 R24/000070 NOSIG

VFR

10°C / -6°C

[Plus]
Vent 310º 16kt
Visibilité >10km
Météo -
Nuages Clouds and Visibility OK
Pression 1004
Changement No Significant change
Brut UUWW 240630Z 31008MPS CAVOK 10/M06 Q1004 R24/000070 NOSIG

VFR

10°C / -5°C

[Plus]
Vent 320º 16kt
Visibilité >10km
Météo -
Nuages Clouds and Visibility OK
Pression 1004
Changement No Significant change
Brut UUWW 240600Z 32008MPS CAVOK 10/M05 Q1004 R24/000070 NOSIG

VFR

9°C / -6°C

[Plus]
Vent 290º 10kt Gust 19kt
Visibilité >10km
Météo -
Nuages Clouds and Visibility OK
Pression 1005
Changement No Significant change
Brut UUWW 240530Z 29005G10MPS CAVOK 09/M06 Q1005 R24/000070 NOSIG

VFR

8°C / -6°C

[Plus]
Vent 290º 10kt
Visibilité >10km
Météo -
Nuages Clouds and Visibility OK
Pression 1005
Changement No Significant change
Brut UUWW 240500Z 29005MPS CAVOK 08/M06 Q1005 R24/000070 NOSIG

VFR

8°C / -6°C

[Plus]
Vent 300º 10kt
Visibilité >10km
Météo -
Nuages Clouds and Visibility OK
Pression 1005
Changement No Significant change
Brut UUWW 240430Z 30005MPS CAVOK 08/M06 Q1005 R24/000070 NOSIG

VFR

7°C / -5°C

[Plus]
Vent 280º 10kt
Visibilité >10km
Météo -
Nuages Clouds and Visibility OK
Pression 1005
Changement No Significant change
Brut UUWW 240400Z 28005MPS CAVOK 07/M05 Q1005 R24/000070 NOSIG

VFR

7°C / -4°C

[Plus]
Vent 280º 6kt
Visibilité >10km
Météo -
Nuages Clouds and Visibility OK
Pression 1005
Changement No Significant change
Brut UUWW 240330Z 28003MPS CAVOK 07/M04 Q1005 R24/000070 NOSIG

VFR

7°C / -5°C

[Plus]
Vent 280º 6kt
Visibilité >10km
Météo -
Nuages Clouds and Visibility OK
Pression 1005
Changement No Significant change
Brut UUWW 240300Z 28003MPS CAVOK 07/M05 Q1005 R24/000070 NOSIG

VFR

6°C / -5°C

[Plus]
Vent 270º 4kt
Visibilité >10km
Météo -
Nuages Clouds and Visibility OK
Pression 1005
Changement No Significant change
Brut UUWW 240230Z 27002MPS CAVOK 06/M05 Q1005 R24/000070 NOSIG

VFR

6°C / -5°C

[Plus]
Vent 250º 4kt
Visibilité >10km
Météo -
Nuages Clouds and Visibility OK
Pression 1005
Changement No Significant change
Brut UUWW 240200Z 25002MPS CAVOK 06/M05 Q1005 R24/000070 NOSIG

VFR

7°C / -6°C

[Plus]
Vent 310º 6kt
Visibilité >10km
Météo -
Nuages Clouds and Visibility OK
Pression 1005
Changement No Significant change
Brut UUWW 240130Z 31003MPS CAVOK 07/M06 Q1005 R24/000070 NOSIG

VFR

7°C / -6°C

[Plus]
Vent 320º 8kt
Visibilité >10km
Météo -
Nuages Clouds and Visibility OK
Pression 1005
Changement No Significant change
Brut UUWW 240100Z 32004MPS CAVOK 07/M06 Q1005 R24/000070 NOSIG

VFR

7°C / -6°C

[Plus]
Vent 300º 4kt
Visibilité >10km
Météo -
Nuages Clouds and Visibility OK
Pression 1005
Changement No Significant change
Brut UUWW 240030Z 30002MPS CAVOK 07/M06 Q1005 R24/000070 NOSIG

VFR

7°C / -6°C

[Plus]
Vent 270º 4kt
Visibilité >10km
Météo -
Nuages Clouds and Visibility OK
Pression 1005
Changement No Significant change
Brut UUWW 240000Z 27002MPS CAVOK 07/M06 Q1005 R24/000070 NOSIG

VFR

7°C / -6°C

[Plus]
Vent 290º 4kt
Visibilité >10km
Météo -
Nuages Clouds and Visibility OK
Pression 1004
Changement No Significant change
Brut UUWW 232330Z 29002MPS CAVOK 07/M06 Q1004 R24/000070 NOSIG

VFR

8°C / -6°C

[Plus]
Vent 290º 4kt
Visibilité >10km
Météo -
Nuages Clouds and Visibility OK
Pression 1004
Changement No Significant change
Brut UUWW 232300Z 29002MPS CAVOK 08/M06 Q1004 R24/000070 NOSIG

VFR

8°C / -6°C

[Plus]
Vent 290º 6kt
Visibilité >10km
Météo -
Nuages Clouds and Visibility OK
Pression 1005
Changement No Significant change
Brut UUWW 232230Z 29003MPS CAVOK 08/M06 Q1005 R24/000070 NOSIG

VFR

8°C / -7°C

[Plus]
Vent 330º 8kt
Visibilité >10km
Météo -
Nuages Clouds and Visibility OK
Pression 1004
Changement No Significant change
Brut UUWW 232200Z 33004MPS CAVOK 08/M07 Q1004 R24/000070 NOSIG

VFR

9°C / -7°C

[Plus]
Vent 330º 6kt
Visibilité >10km
Météo -
Nuages Clouds and Visibility OK
Pression 1004
Changement No Significant change
Brut UUWW 232130Z 33003MPS CAVOK 09/M07 Q1004 R24/000070 NOSIG

VFR

9°C / -7°C

[Plus]
Vent 290º 6kt
Visibilité >10km
Météo -
Nuages Clouds and Visibility OK
Pression 1004
Changement No Significant change
Brut UUWW 232100Z 29003MPS CAVOK 09/M07 Q1004 R24/000070 NOSIG

VFR

9°C / -7°C

[Plus]
Vent 290º 4kt
Visibilité >10km
Météo -
Nuages Clouds and Visibility OK
Pression 1004
Changement No Significant change
Brut UUWW 232030Z 29002MPS CAVOK 09/M07 Q1004 R24/000070 NOSIG

TAF pour 55.6°N 37.27°E (UUWW)

From till


Maximum Temperature 9ºC on . Minimum Temperature 1ºC on .
From till Wind 310º 10kt. Visibility 10km or more. Broken Clouds 1600ft.
Temporarly from till Wind 290º 16kt. Gust 27kt. Light Showers Rain . Few Clouds 600ft. Scattered Clouds 2000ft.
Temporarly from till Wind 350º 16kt. Gust 29kt. Light Showers Rain . Few Clouds 500ft. Scattered Clouds 2000ft.
Becoming from till Wind 10º 6kt. Visibility 10km or more. Broken Clouds 1600ft.

Brut: TAF UUWW 240456Z 2406/2506 31005MPS 9999 BKN016 TX09/2412Z TN01/2502Z TEMPO 2406/2407 29008G14MPS -SHRA FEW006 SCT020CB TEMPO 2407/2417 35008G15MPS -SHRA FEW005 SCT020CB BECMG 2417/2420 01003MPS

Radar et prévision de précipitation à court terme pour 55.6°N 37.27°E

Bruine
Légère
Modéré
Fort
Très fort
Grêle

Le marqueur est placé sur 55.6°N 37.27°E. Cette animation montre le Radar des précipitations pour les dernières heures, ainsi qu'une 1h prévision. La bruine ou les légères chutes de neiges peuvent ne pas être détectées par le radar. L'intensité des précipitations est visible avec un code couleur allant du bleu clair au violet foncé et orange.

Les images satellites et les pluies actuelles pour 55.6°N 37.27°E

Le marqueur est placé sur 55.6°N 37.27°E. [Plus]

L'image satellite en temps réel combine la lumière visible pendant la journée et le rayonnement infrarouge pendant la nuit. La nuit, l'image n'est pas sombre car le rayonnement infrarouge permet de détecter les différences de température. Malheureusement, les nuages bas et le brouillard sont difficiles à distinguer des températures au sol et peuvent donc être presque invisibles pendant la nuit. Les images des satellites Météosat pour l'Europe sont mises à jour en temps réel toutes les 5 minutes. Les images GOES-16/GOES-17 (Amérique du Nord et du Sud) et Himawari (Asie) sont mises à jour toutes les 10 minutes.

Copyright 2022 EUMETSAT / meteoblue. / Copyright 2022 meteoblue

Retour vers le haut